sensor_id;sensor_type;location;lat;lon;timestamp;pressure;altitude;pressure_sealevel;temperature;humidity
67697;BME280;54486;51.442;6.778;2023-04-08T00:02:25;101988.50;;;9.25;100.00
67697;BME280;54486;51.442;6.778;2023-04-08T00:04:52;101988.47;;;9.24;100.00
67697;BME280;54486;51.442;6.778;2023-04-08T00:07:20;101983.25;;;9.24;100.00
67697;BME280;54486;51.442;6.778;2023-04-08T00:09:47;101990.19;;;9.22;100.00
67697;BME280;54486;51.442;6.778;2023-04-08T00:12:15;101988.38;;;9.18;100.00
67697;BME280;54486;51.442;6.778;2023-04-08T00:14:43;101996.13;;;9.16;100.00
67697;BME280;54486;51.442;6.778;2023-04-08T00:17:10;101993.50;;;9.15;100.00
67697;BME280;54486;51.442;6.778;2023-04-08T00:19:38;102002.16;;;9.14;100.00
67697;BME280;54486;51.442;6.778;2023-04-08T00:22:05;101996.91;;;9.11;100.00
67697;BME280;54486;51.442;6.778;2023-04-08T00:24:33;102000.34;;;9.10;100.00
67697;BME280;54486;51.442;6.778;2023-04-08T00:27:00;101996.84;;;9.08;100.00
67697;BME280;54486;51.442;6.778;2023-04-08T00:29:29;102001.22;;;9.09;100.00
67697;BME280;54486;51.442;6.778;2023-04-08T00:31:57;102007.25;;;9.08;100.00
67697;BME280;54486;51.442;6.778;2023-04-08T00:34:24;102008.09;;;9.05;100.00
67697;BME280;54486;51.442;6.778;2023-04-08T00:36:51;102015.91;;;9.07;100.00
67697;BME280;54486;51.442;6.778;2023-04-08T00:39:19;102005.50;;;9.07;100.00
67697;BME280;54486;51.442;6.778;2023-04-08T00:41:46;102014.19;;;9.06;100.00
67697;BME280;54486;51.442;6.778;2023-04-08T00:44:13;102015.88;;;9.03;100.00
67697;BME280;54486;51.442;6.778;2023-04-08T00:46:42;102012.38;;;9.01;100.00
67697;BME280;54486;51.442;6.778;2023-04-08T00:49:09;102013.16;;;8.97;100.00
67697;BME280;54486;51.442;6.778;2023-04-08T00:51:37;102019.22;;;8.96;100.00
67697;BME280;54486;51.442;6.778;2023-04-08T00:54:05;102015.69;;;8.94;100.00
67697;BME280;54486;51.442;6.778;2023-04-08T00:56:33;102020.84;;;8.91;100.00
67697;BME280;54486;51.442;6.778;2023-04-08T00:59:02;102014.75;;;8.89;100.00
67697;BME280;54486;51.442;6.778;2023-04-08T01:01:43;102017.34;;;8.89;100.00
67697;BME280;54486;51.442;6.778;2023-04-08T01:04:31;102022.50;;;8.86;100.00
67697;BME280;54486;51.442;6.778;2023-04-08T01:09:37;102028.50;;;8.84;100.00
67697;BME280;54486;51.442;6.778;2023-04-08T01:12:07;102027.63;;;8.83;100.00
67697;BME280;54486;51.442;6.778;2023-04-08T01:14:38;102032.84;;;8.83;100.00
67697;BME280;54486;51.442;6.778;2023-04-08T01:17:09;102031.09;;;8.82;100.00
67697;BME280;54486;51.442;6.778;2023-04-08T01:19:39;102022.31;;;8.77;100.00
67697;BME280;54486;51.442;6.778;2023-04-08T01:24:42;102014.47;;;8.76;100.00
67697;BME280;54486;51.442;6.778;2023-04-08T01:27:11;102015.28;;;8.73;100.00
67697;BME280;54486;51.442;6.778;2023-04-08T01:29:41;102024.81;;;8.74;100.00
67697;BME280;54486;51.442;6.778;2023-04-08T01:32:09;102028.34;;;8.76;100.00
67697;BME280;54486;51.442;6.778;2023-04-08T01:34:39;102030.91;;;8.73;100.00
67697;BME280;54486;51.442;6.778;2023-04-08T01:37:08;102026.53;;;8.71;100.00
67697;BME280;54486;51.442;6.778;2023-04-08T01:39:37;102032.50;;;8.68;100.00
67697;BME280;54486;51.442;6.778;2023-04-08T01:42:07;102030.72;;;8.64;100.00
67697;BME280;54486;51.442;6.778;2023-04-08T01:44:38;102030.66;;;8.61;100.00
67697;BME280;54486;51.442;6.778;2023-04-08T01:47:07;102028.88;;;8.60;100.00
67697;BME280;54486;51.442;6.778;2023-04-08T01:49:36;102025.47;;;8.61;100.00
67697;BME280;54486;51.442;6.778;2023-04-08T01:52:05;102033.19;;;8.58;100.00
67697;BME280;54486;51.442;6.778;2023-04-08T01:54:35;102028.84;;;8.57;100.00
67697;BME280;54486;51.442;6.778;2023-04-08T01:57:04;102025.41;;;8.58;100.00
67697;BME280;54486;51.442;6.778;2023-04-08T01:59:37;102021.84;;;8.56;100.00
67697;BME280;54486;51.442;6.778;2023-04-08T02:02:07;102028.84;;;8.57;100.00
67697;BME280;54486;51.442;6.778;2023-04-08T02:04:35;102025.41;;;8.58;100.00
67697;BME280;54486;51.442;6.778;2023-04-08T02:07:03;102021.91;;;8.59;100.00
67697;BME280;54486;51.442;6.778;2023-04-08T02:09:32;102025.47;;;8.63;100.00
67697;BME280;54486;51.442;6.778;2023-04-08T02:12:01;102025.50;;;8.64;100.00
67697;BME280;54486;51.442;6.778;2023-04-08T02:14:29;102025.50;;;8.64;100.00
67697;BME280;54486;51.442;6.778;2023-04-08T02:17:09;102035.88;;;8.63;100.00
67697;BME280;54486;51.442;6.778;2023-04-08T02:22:11;102041.72;;;8.52;100.00
67697;BME280;54486;51.442;6.778;2023-04-08T02:24:45;102037.28;;;8.47;100.00
67697;BME280;54486;51.442;6.778;2023-04-08T02:27:14;102042.41;;;8.44;100.00
67697;BME280;54486;51.442;6.778;2023-04-08T02:29:44;102050.03;;;8.36;100.00
67697;BME280;54486;51.442;6.778;2023-04-08T02:32:13;102040.47;;;8.34;100.00
67697;BME280;54486;51.442;6.778;2023-04-08T02:34:42;102043.72;;;8.27;100.00
67697;BME280;54486;51.442;6.778;2023-04-08T02:37:10;102051.53;;;8.27;100.00
67697;BME280;54486;51.442;6.778;2023-04-08T02:39:37;102042.56;;;8.14;100.00
67697;BME280;54486;51.442;6.778;2023-04-08T02:42:04;102048.50;;;8.07;100.00
67697;BME280;54486;51.442;6.778;2023-04-08T02:44:32;102043.13;;;7.99;100.00
67697;BME280;54486;51.442;6.778;2023-04-08T02:46:59;102044.63;;;7.91;100.00
67697;BME280;54486;51.442;6.778;2023-04-08T02:49:26;102046.22;;;7.85;100.00
67697;BME280;54486;51.442;6.778;2023-04-08T02:51:54;102046.13;;;7.80;100.00
67697;BME280;54486;51.442;6.778;2023-04-08T02:54:20;102045.97;;;7.74;100.00
67697;BME280;54486;51.442;6.778;2023-04-08T02:56:48;102039.69;;;7.65;100.00
67697;BME280;54486;51.442;6.778;2023-04-08T02:59:15;102046.53;;;7.63;100.00
67697;BME280;54486;51.442;6.778;2023-04-08T03:01:41;102050.81;;;7.61;100.00
67697;BME280;54486;51.442;6.778;2023-04-08T03:04:09;102046.34;;;7.55;100.00
67697;BME280;54486;51.442;6.778;2023-04-08T03:06:36;102046.97;;;7.45;100.00
67697;BME280;54486;51.442;6.778;2023-04-08T03:09:03;102048.72;;;7.46;100.00
67697;BME280;54486;51.442;6.778;2023-04-08T03:11:31;102050.38;;;7.44;100.00
67697;BME280;54486;51.442;6.778;2023-04-08T03:13:59;102053.69;;;7.37;100.00
67697;BME280;54486;51.442;6.778;2023-04-08T03:16:27;102051.69;;;7.27;100.00
67697;BME280;54486;51.442;6.778;2023-04-08T03:18:54;102054.06;;;7.19;100.00
67697;BME280;54486;51.442;6.778;2023-04-08T03:21:21;102051.34;;;7.15;100.00
67697;BME280;54486;51.442;6.778;2023-04-08T03:23:48;102047.91;;;7.16;100.00
67697;BME280;54486;51.442;6.778;2023-04-08T03:26:15;102047.84;;;7.13;100.00
67697;BME280;54486;51.442;6.778;2023-04-08T03:28:42;102046.88;;;7.09;100.00
67697;BME280;54486;51.442;6.778;2023-04-08T03:31:09;102057.16;;;7.06;100.00
67697;BME280;54486;51.442;6.778;2023-04-08T03:33:36;102059.66;;;7.02;100.00
67697;BME280;54486;51.442;6.778;2023-04-08T03:36:04;102048.97;;;6.91;100.00
67697;BME280;54486;51.442;6.778;2023-04-08T03:38:32;102054.00;;;6.86;100.00
67697;BME280;54486;51.442;6.778;2023-04-08T03:41:00;102054.00;;;6.86;100.00
67697;BME280;54486;51.442;6.778;2023-04-08T03:43:26;102063.34;;;6.80;100.00
67697;BME280;54486;51.442;6.778;2023-04-08T03:45:54;102063.13;;;6.72;100.00
67697;BME280;54486;51.442;6.778;2023-04-08T03:48:22;102060.47;;;6.69;100.00
67697;BME280;54486;51.442;6.778;2023-04-08T03:50:49;102065.56;;;6.66;100.00
67697;BME280;54486;51.442;6.778;2023-04-08T03:53:17;102069.78;;;6.63;100.00
67697;BME280;54486;51.442;6.778;2023-04-08T03:55:47;102066.22;;;6.61;100.00
67697;BME280;54486;51.442;6.778;2023-04-08T03:58:15;102068.88;;;6.62;100.00
67697;BME280;54486;51.442;6.778;2023-04-08T04:00:44;102070.47;;;6.57;100.00
67697;BME280;54486;51.442;6.778;2023-04-08T04:03:12;102068.72;;;6.56;100.00
67697;BME280;54486;51.442;6.778;2023-04-08T04:05:39;102072.03;;;6.52;100.00
67697;BME280;54486;51.442;6.778;2023-04-08T04:08:07;102064.91;;;6.45;100.00
67697;BME280;54486;51.442;6.778;2023-04-08T04:10:35;102067.50;;;6.45;100.00
67697;BME280;54486;51.442;6.778;2023-04-08T04:13:02;102069.91;;;6.39;100.00
67697;BME280;54486;51.442;6.778;2023-04-08T04:15:30;102078.41;;;6.35;100.00
67697;BME280;54486;51.442;6.778;2023-04-08T04:17:58;102082.59;;;6.30;100.00
67697;BME280;54486;51.442;6.778;2023-04-08T04:20:25;102084.28;;;6.28;100.00
67697;BME280;54486;51.442;6.778;2023-04-08T04:22:52;102088.50;;;6.26;100.00
67697;BME280;54486;51.442;6.778;2023-04-08T04:25:21;102095.66;;;6.33;100.00
67697;BME280;54486;51.442;6.778;2023-04-08T04:27:48;102094.75;;;6.32;100.00
67697;BME280;54486;51.442;6.778;2023-04-08T04:30:15;102092.22;;;6.34;100.00
67697;BME280;54486;51.442;6.778;2023-04-08T04:32:43;102095.84;;;6.39;100.00
67697;BME280;54486;51.442;6.778;2023-04-08T04:35:10;102096.81;;;6.43;100.00
67697;BME280;54486;51.442;6.778;2023-04-08T04:37:38;102108.25;;;6.49;100.00
67697;BME280;54486;51.442;6.778;2023-04-08T04:40:06;102104.84;;;6.50;100.00
67697;BME280;54486;51.442;6.778;2023-04-08T04:42:34;102099.75;;;6.53;100.00
67697;BME280;54486;51.442;6.778;2023-04-08T04:45:01;102106.78;;;6.57;100.00
67697;BME280;54486;51.442;6.778;2023-04-08T04:47:29;102099.09;;;6.60;100.00
67697;BME280;54486;51.442;6.778;2023-04-08T04:49:59;102102.69;;;6.65;100.00
67697;BME280;54486;51.442;6.778;2023-04-08T04:52:26;102107.16;;;6.71;100.00
67697;BME280;54486;51.442;6.778;2023-04-08T04:54:53;102109.09;;;6.76;100.00
67697;BME280;54486;51.442;6.778;2023-04-08T04:57:21;102112.69;;;6.81;100.00
67697;BME280;54486;51.442;6.778;2023-04-08T04:59:48;102107.59;;;6.84;100.00
67697;BME280;54486;51.442;6.778;2023-04-08T05:02:15;102111.09;;;6.86;100.00
67697;BME280;54486;51.442;6.778;2023-04-08T05:04:42;102119.91;;;6.91;100.00
67697;BME280;54486;51.442;6.778;2023-04-08T05:07:09;102120.91;;;6.97;100.00
67697;BME280;54486;51.442;6.778;2023-04-08T05:09:36;102121.88;;;7.00;100.00
67697;BME280;54486;51.442;6.778;2023-04-08T05:12:06;102134.13;;;7.06;100.00
67697;BME280;54486;51.442;6.778;2023-04-08T05:14:33;102136.00;;;7.10;100.00
67697;BME280;54486;51.442;6.778;2023-04-08T05:16:59;102136.97;;;7.13;100.00
67697;BME280;54486;51.442;6.778;2023-04-08T05:19:27;102138.75;;;7.16;100.00
67697;BME280;54486;51.442;6.778;2023-04-08T05:21:54;102135.28;;;7.15;100.00
67697;BME280;54486;51.442;6.778;2023-04-08T05:24:22;102130.16;;;7.17;100.00
67697;BME280;54486;51.442;6.778;2023-04-08T05:26:49;102136.16;;;7.16;100.00
67697;BME280;54486;51.442;6.778;2023-04-08T05:29:19;102130.16;;;7.18;100.00
67697;BME280;54486;51.442;6.778;2023-04-08T05:31:47;102144.78;;;7.15;100.00
67697;BME280;54486;51.442;6.778;2023-04-08T05:34:15;102134.31;;;7.12;100.00
67697;BME280;54486;51.442;6.778;2023-04-08T05:36:49;102141.28;;;7.13;100.00
67697;BME280;54486;51.442;6.778;2023-04-08T05:39:19;102148.31;;;7.17;100.00
67697;BME280;54486;51.442;6.778;2023-04-08T05:41:46;102143.78;;;7.10;100.00
67697;BME280;54486;51.442;6.778;2023-04-08T05:44:14;102153.16;;;7.05;100.00
67697;BME280;54486;51.442;6.778;2023-04-08T05:46:41;102153.09;;;7.03;100.00
67697;BME280;54486;51.442;6.778;2023-04-08T05:49:08;102159.19;;;7.04;100.00
67697;BME280;54486;51.442;6.778;2023-04-08T05:51:35;102155.84;;;7.08;100.00
67697;BME280;54486;51.442;6.778;2023-04-08T05:54:02;102156.00;;;7.14;100.00
67697;BME280;54486;51.442;6.778;2023-04-08T05:56:30;102164.72;;;7.16;100.00
67697;BME280;54486;51.442;6.778;2023-04-08T05:58:58;102162.22;;;7.19;100.00
67697;BME280;54486;51.442;6.778;2023-04-08T06:01:25;102165.84;;;7.24;100.00
67697;BME280;54486;51.442;6.778;2023-04-08T06:03:53;102168.50;;;7.27;100.00
67697;BME280;54486;51.442;6.778;2023-04-08T06:06:23;102170.31;;;7.29;100.00
67697;BME280;54486;51.442;6.778;2023-04-08T06:08:51;102166.16;;;7.36;100.00
67697;BME280;54486;51.442;6.778;2023-04-08T06:11:18;102176.63;;;7.39;100.00
67697;BME280;54486;51.442;6.778;2023-04-08T06:13:45;102180.16;;;7.41;100.00
67697;BME280;54486;51.442;6.778;2023-04-08T06:16:14;102172.44;;;7.44;100.00
67697;BME280;54486;51.442;6.778;2023-04-08T06:18:46;102169.94;;;7.47;100.00
67697;BME280;54486;51.442;6.778;2023-04-08T06:21:14;102173.47;;;7.49;100.00
67697;BME280;54486;51.442;6.778;2023-04-08T06:23:42;102180.47;;;7.53;100.00
67697;BME280;54486;51.442;6.778;2023-04-08T06:26:09;102187.53;;;7.57;100.00
67697;BME280;54486;51.442;6.778;2023-04-08T06:28:36;102188.56;;;7.62;100.00
67697;BME280;54486;51.442;6.778;2023-04-08T06:31:04;102179.94;;;7.65;100.00
67697;BME280;54486;51.442;6.778;2023-04-08T06:33:31;102189.69;;;7.73;100.00
67697;BME280;54486;51.442;6.778;2023-04-08T06:36:05;102194.00;;;7.71;100.00
67697;BME280;54486;51.442;6.778;2023-04-08T06:38:33;102198.69;;;7.84;100.00
67697;BME280;54486;51.442;6.778;2023-04-08T06:41:06;102194.19;;;7.79;100.00
67697;BME280;54486;51.442;6.778;2023-04-08T06:43:34;102196.75;;;7.77;100.00
67697;BME280;54486;51.442;6.778;2023-04-08T06:46:02;102195.78;;;7.74;100.00
67697;BME280;54486;51.442;6.778;2023-04-08T06:48:30;102195.53;;;7.65;100.00
67697;BME280;54486;51.442;6.778;2023-04-08T06:50:58;102198.13;;;7.65;100.00
67697;BME280;54486;51.442;6.778;2023-04-08T06:53:26;102204.97;;;7.61;100.00
67697;BME280;54486;51.442;6.778;2023-04-08T06:55:55;102206.38;;;7.50;100.00
67697;BME280;54486;51.442;6.778;2023-04-08T06:58:22;102209.81;;;7.49;100.00
67697;BME280;54486;51.442;6.778;2023-04-08T07:00:49;102212.50;;;7.52;100.00
67697;BME280;54486;51.442;6.778;2023-04-08T07:03:16;102223.16;;;7.63;100.00
67697;BME280;54486;51.442;6.778;2023-04-08T07:05:43;102219.03;;;7.69;100.00
67697;BME280;54486;51.442;6.778;2023-04-08T07:08:10;102225.28;;;7.76;100.00
67697;BME280;54486;51.442;6.778;2023-04-08T07:10:37;102220.31;;;7.85;100.00
67697;BME280;54486;51.442;6.778;2023-04-08T07:13:04;102228.16;;;7.86;100.00
67697;BME280;54486;51.442;6.778;2023-04-08T07:15:32;102220.44;;;7.88;100.00
67697;BME280;54486;51.442;6.778;2023-04-08T07:17:59;102225.06;;;7.99;100.00
67697;BME280;54486;51.442;6.778;2023-04-08T07:20:26;102225.06;;;7.99;100.00
67697;BME280;54486;51.442;6.778;2023-04-08T07:22:53;102225.28;;;8.09;100.00
67697;BME280;54486;51.442;6.778;2023-04-08T07:25:21;102230.63;;;8.13;100.00
67697;BME280;54486;51.442;6.778;2023-04-08T07:27:47;102235.78;;;8.12;100.00
67697;BME280;54486;51.442;6.778;2023-04-08T07:30:14;102242.59;;;8.07;100.00
67697;BME280;54486;51.442;6.778;2023-04-08T07:32:41;102244.84;;;7.94;100.00
67697;BME280;54486;51.442;6.778;2023-04-08T07:35:08;102249.69;;;7.81;100.00
67697;BME280;54486;51.442;6.778;2023-04-08T07:37:36;102250.50;;;7.80;100.00
67697;BME280;54486;51.442;6.778;2023-04-08T07:40:03;102248.97;;;7.86;100.00
67697;BME280;54486;51.442;6.778;2023-04-08T07:42:31;102251.88;;;7.98;100.00
67697;BME280;54486;51.442;6.778;2023-04-08T07:44:57;102256.00;;;7.90;100.00
67697;BME280;54486;51.442;6.778;2023-04-08T07:47:25;102259.28;;;7.83;100.00
67697;BME280;54486;51.442;6.778;2023-04-08T07:49:53;102261.94;;;7.86;100.00
67697;BME280;54486;51.442;6.778;2023-04-08T07:52:20;102260.31;;;7.90;100.00
67697;BME280;54486;51.442;6.778;2023-04-08T07:54:47;102270.97;;;7.99;100.00
67697;BME280;54486;51.442;6.778;2023-04-08T07:57:14;102266.72;;;8.03;100.00
67697;BME280;54486;51.442;6.778;2023-04-08T07:59:42;102270.25;;;8.05;100.00
67697;BME280;54486;51.442;6.778;2023-04-08T08:02:09;102279.25;;;7.86;100.00
67697;BME280;54486;51.442;6.778;2023-04-08T08:04:36;102284.59;;;7.90;100.00
67697;BME280;54486;51.442;6.778;2023-04-08T08:07:04;102282.00;;;7.90;100.00
67697;BME280;54486;51.442;6.778;2023-04-08T08:09:31;102296.06;;;7.98;100.00
67697;BME280;54486;51.442;6.778;2023-04-08T08:11:59;102292.81;;;8.06;100.00
67697;BME280;54486;51.442;6.778;2023-04-08T08:14:26;102293.78;;;8.11;100.00
67697;BME280;54486;51.442;6.778;2023-04-08T08:16:54;102287.69;;;8.09;100.00
67697;BME280;54486;51.442;6.778;2023-04-08T08:19:22;102294.50;;;8.04;100.00
67697;BME280;54486;51.442;6.778;2023-04-08T08:21:49;102293.94;;;8.15;100.00
67697;BME280;54486;51.442;6.778;2023-04-08T08:24:18;102300.09;;;8.19;100.00
67697;BME280;54486;51.442;6.778;2023-04-08T08:26:45;102296.81;;;8.26;100.00
67697;BME280;54486;51.442;6.778;2023-04-08T08:29:14;102297.09;;;8.35;100.00
67697;BME280;54486;51.442;6.778;2023-04-08T08:31:41;102300.06;;;8.48;100.00
67697;BME280;54486;51.442;6.778;2023-04-08T08:34:08;102302.84;;;8.56;100.00
67697;BME280;54486;51.442;6.778;2023-04-08T08:36:36;102311.88;;;8.70;100.00
67697;BME280;54486;51.442;6.778;2023-04-08T08:39:04;102313.47;;;8.65;100.00
67697;BME280;54486;51.442;6.778;2023-04-08T08:41:33;102318.69;;;8.65;100.00
67697;BME280;54486;51.442;6.778;2023-04-08T08:44:01;102310.09;;;8.68;100.00
67697;BME280;54486;51.442;6.778;2023-04-08T08:46:29;102309.66;;;8.51;100.00
67697;BME280;54486;51.442;6.778;2023-04-08T08:48:56;102310.56;;;8.53;100.00
67697;BME280;54486;51.442;6.778;2023-04-08T08:51:23;102313.69;;;8.74;100.00
67697;BME280;54486;51.442;6.778;2023-04-08T08:53:50;102310.69;;;8.93;100.00
67697;BME280;54486;51.442;6.778;2023-04-08T08:56:18;102298.94;;;9.09;100.00
67697;BME280;54486;51.442;6.778;2023-04-08T08:58:45;102312.19;;;9.20;100.00
67697;BME280;54486;51.442;6.778;2023-04-08T09:01:36;102314.34;;;9.37;100.00
67697;BME280;54486;51.442;6.778;2023-04-08T09:04:14;102312.19;;;9.57;100.00
67697;BME280;54486;51.442;6.778;2023-04-08T09:06:48;102307.72;;;9.53;99.54
67697;BME280;54486;51.442;6.778;2023-04-08T09:09:17;102307.16;;;9.66;98.82
67697;BME280;54486;51.442;6.778;2023-04-08T09:11:45;102309.84;;;9.71;98.28
67697;BME280;54486;51.442;6.778;2023-04-08T09:14:23;102314.38;;;9.79;97.62
67697;BME280;54486;51.442;6.778;2023-04-08T09:16:51;102319.84;;;9.91;95.72
67697;BME280;54486;51.442;6.778;2023-04-08T09:19:18;102327.00;;;10.01;94.90
67697;BME280;54486;51.442;6.778;2023-04-08T09:22:06;102318.66;;;10.18;95.36
67697;BME280;54486;51.442;6.778;2023-04-08T09:24:34;102313.75;;;10.36;95.50
67697;BME280;54486;51.442;6.778;2023-04-08T09:27:04;102317.63;;;10.56;95.08
67697;BME280;54486;51.442;6.778;2023-04-08T09:29:31;102333.28;;;10.56;93.88
67697;BME280;54486;51.442;6.778;2023-04-08T09:32:04;102328.22;;;10.65;94.01
67697;BME280;54486;51.442;6.778;2023-04-08T09:34:32;102333.47;;;10.68;93.07
67697;BME280;54486;51.442;6.778;2023-04-08T09:37:00;102335.22;;;10.69;93.79
67697;BME280;54486;51.442;6.778;2023-04-08T09:39:27;102328.25;;;10.68;92.58
67697;BME280;54486;51.442;6.778;2023-04-08T09:41:56;102330.00;;;10.69;90.87
67697;BME280;54486;51.442;6.778;2023-04-08T09:44:25;102335.16;;;10.66;90.10
67697;BME280;54486;51.442;6.778;2023-04-08T09:47:00;102334.44;;;10.73;91.05
67697;BME280;54486;51.442;6.778;2023-04-08T09:50:01;102333.53;;;10.71;90.00
67697;BME280;54486;51.442;6.778;2023-04-08T09:52:43;102334.31;;;10.67;90.30
67697;BME280;54486;51.442;6.778;2023-04-08T09:55:12;102331.56;;;10.58;91.30
67697;BME280;54486;51.442;6.778;2023-04-08T09:57:57;102333.03;;;10.44;91.24
67697;BME280;54486;51.442;6.778;2023-04-08T10:00:31;102332.81;;;10.32;87.81
67697;BME280;54486;51.442;6.778;2023-04-08T10:05:40;102328.06;;;10.56;90.61
67697;BME280;54486;51.442;6.778;2023-04-08T10:08:08;102319.59;;;10.72;89.89
67697;BME280;54486;51.442;6.778;2023-04-08T10:10:40;102313.78;;;10.88;88.75
67697;BME280;54486;51.442;6.778;2023-04-08T10:13:08;102309.75;;;11.08;85.34
67697;BME280;54486;51.442;6.778;2023-04-08T10:15:37;102313.41;;;11.20;85.42
67697;BME280;54486;51.442;6.778;2023-04-08T10:23:11;102318.50;;;11.72;82.71
67697;BME280;54486;51.442;6.778;2023-04-08T10:25:44;102324.03;;;11.95;82.07
67697;BME280;54486;51.442;6.778;2023-04-08T10:30:46;102325.19;;;12.21;78.56
67697;BME280;54486;51.442;6.778;2023-04-08T10:33:24;102325.22;;;12.26;77.78
67697;BME280;54486;51.442;6.778;2023-04-08T10:36:08;102330.50;;;12.29;75.47
67697;BME280;54486;51.442;6.778;2023-04-08T10:38:45;102331.34;;;12.26;74.45
67697;BME280;54486;51.442;6.778;2023-04-08T10:41:22;102331.34;;;12.26;74.24
67697;BME280;54486;51.442;6.778;2023-04-08T10:43:52;102330.63;;;12.38;75.20
67697;BME280;54486;51.442;6.778;2023-04-08T10:46:26;102326.34;;;12.49;75.23
67697;BME280;54486;51.442;6.778;2023-04-08T10:49:01;102320.38;;;12.65;73.13
67697;BME280;54486;51.442;6.778;2023-04-08T10:51:31;102320.44;;;12.71;73.27
67697;BME280;54486;51.442;6.778;2023-04-08T10:54:07;102322.22;;;12.72;67.61
67697;BME280;54486;51.442;6.778;2023-04-08T10:56:50;102321.19;;;12.56;70.60
67697;BME280;54486;51.442;6.778;2023-04-08T10:59:30;102315.13;;;12.62;73.38
67697;BME280;54486;51.442;6.778;2023-04-08T11:02:00;102320.28;;;12.53;73.57
67697;BME280;54486;51.442;6.778;2023-04-08T11:04:31;102313.19;;;12.43;73.71
67697;BME280;54486;51.442;6.778;2023-04-08T11:07:04;102313.97;;;12.31;74.67
67697;BME280;54486;51.442;6.778;2023-04-08T11:09:37;102317.19;;;12.06;74.16
67697;BME280;54486;51.442;6.778;2023-04-08T11:12:09;102314.34;;;11.86;72.48
67697;BME280;54486;51.442;6.778;2023-04-08T11:14:41;102311.53;;;11.73;74.14
67697;BME280;54486;51.442;6.778;2023-04-08T11:17:13;102310.47;;;11.60;74.68
67697;BME280;54486;51.442;6.778;2023-04-08T11:19:46;102308.69;;;11.56;75.27
67697;BME280;54486;51.442;6.778;2023-04-08T11:22:16;102314.75;;;11.53;74.95
67697;BME280;54486;51.442;6.778;2023-04-08T11:24:48;102308.75;;;11.62;76.49
67697;BME280;54486;51.442;6.778;2023-04-08T11:27:16;102314.19;;;11.74;76.40
67697;BME280;54486;51.442;6.778;2023-04-08T11:29:43;102304.72;;;11.85;75.80
67697;BME280;54486;51.442;6.778;2023-04-08T11:32:12;102313.56;;;11.95;74.12
67697;BME280;54486;51.442;6.778;2023-04-08T11:34:40;102298.88;;;12.07;74.37
67697;BME280;54486;51.442;6.778;2023-04-08T11:37:07;102302.59;;;12.28;74.16
67697;BME280;54486;51.442;6.778;2023-04-08T11:39:41;102307.94;;;12.40;73.68
67697;BME280;54486;51.442;6.778;2023-04-08T11:42:25;102308.97;;;12.54;72.16
67697;BME280;54486;51.442;6.778;2023-04-08T11:44:52;102314.13;;;12.49;72.06
67697;BME280;54486;51.442;6.778;2023-04-08T11:47:19;102306.19;;;12.42;72.27
67697;BME280;54486;51.442;6.778;2023-04-08T11:49:46;102309.81;;;12.53;71.80
67697;BME280;54486;51.442;6.778;2023-04-08T11:52:15;102311.38;;;12.36;71.62
67697;BME280;54486;51.442;6.778;2023-04-08T11:54:42;102316.66;;;12.39;73.44
67697;BME280;54486;51.442;6.778;2023-04-08T11:57:09;102315.00;;;12.47;73.17
67697;BME280;54486;51.442;6.778;2023-04-08T11:59:37;102321.16;;;12.53;73.72
67697;BME280;54486;51.442;6.778;2023-04-08T12:02:04;102323.97;;;12.73;72.34
67697;BME280;54486;51.442;6.778;2023-04-08T12:04:31;102322.25;;;12.78;72.66
67697;BME280;54486;51.442;6.778;2023-04-08T12:07:00;102328.44;;;12.88;71.81
67697;BME280;54486;51.442;6.778;2023-04-08T12:09:27;102332.03;;;13.00;71.89
67697;BME280;54486;51.442;6.778;2023-04-08T12:11:54;102324.31;;;13.15;69.47
67697;BME280;54486;51.442;6.778;2023-04-08T12:14:22;102319.97;;;13.22;70.18
67697;BME280;54486;51.442;6.778;2023-04-08T12:16:53;102324.31;;;13.15;66.90
67697;BME280;54486;51.442;6.778;2023-04-08T12:19:20;102327.84;;;13.17;66.61
67697;BME280;54486;51.442;6.778;2023-04-08T12:21:47;102320.88;;;13.22;66.87
67697;BME280;54486;51.442;6.778;2023-04-08T12:24:14;102322.75;;;13.48;66.89
67697;BME280;54486;51.442;6.778;2023-04-08T12:26:42;102328.00;;;13.48;64.02
67697;BME280;54486;51.442;6.778;2023-04-08T12:29:08;102324.63;;;13.67;66.13
67697;BME280;54486;51.442;6.778;2023-04-08T12:31:37;102316.75;;;13.62;66.16
67697;BME280;54486;51.442;6.778;2023-04-08T12:34:05;102316.81;;;13.87;65.79
67697;BME280;54486;51.442;6.778;2023-04-08T12:36:32;102313.38;;;14.10;65.12
67697;BME280;54486;51.442;6.778;2023-04-08T12:38:59;102308.16;;;14.12;64.58
67697;BME280;54486;51.442;6.778;2023-04-08T12:41:27;102317.78;;;14.17;64.69
67697;BME280;54486;51.442;6.778;2023-04-08T12:43:54;102313.47;;;14.33;62.92
67697;BME280;54486;51.442;6.778;2023-04-08T12:46:21;102312.53;;;14.13;63.39
67697;BME280;54486;51.442;6.778;2023-04-08T12:48:49;102312.53;;;14.17;64.04
67697;BME280;54486;51.442;6.778;2023-04-08T12:51:29;102310.78;;;14.09;65.57
67697;BME280;54486;51.442;6.778;2023-04-08T12:53:57;102308.16;;;14.12;65.09
67697;BME280;54486;51.442;6.778;2023-04-08T12:56:26;102315.97;;;13.95;64.90
67697;BME280;54486;51.442;6.778;2023-04-08T12:58:53;102315.03;;;13.75;66.49
67697;BME280;54486;51.442;6.778;2023-04-08T13:01:21;102319.38;;;13.73;67.46
67697;BME280;54486;51.442;6.778;2023-04-08T13:03:49;102316.75;;;13.62;67.74
67697;BME280;54486;51.442;6.778;2023-04-08T13:06:15;102308.84;;;13.58;68.43
67697;BME280;54486;51.442;6.778;2023-04-08T13:08:42;102314.03;;;13.49;67.87
67697;BME280;54486;51.442;6.778;2023-04-08T13:11:09;102305.28;;;13.50;67.22
67697;BME280;54486;51.442;6.778;2023-04-08T13:13:37;102305.25;;;13.44;67.82
67697;BME280;54486;51.442;6.778;2023-04-08T13:16:03;102305.22;;;13.35;69.09
67697;BME280;54486;51.442;6.778;2023-04-08T13:18:31;102312.19;;;13.30;69.98